Time;durP1;ratioP1;P1;durP2;ratioP2;P2;SDS_P1;SDS_P2;PMS_P1;PMS_P2;Temp;Humidity;BMP_temperature;BMP_pressure;BME280_temperature;BME280_humidity;BME280_pressure;Samples;Min_cycle;Max_cycle;Signal;HPM_P1;HPM_P2
2022/08/11 00:00:36;;;;;;;0.73;0.73;;;14.10;99.90;;;;;;5115238;28;20011;-77
2022/08/11 00:03:08;;;;;;;0.30;0.30;;;14.10;99.90;;;;;;5115032;28;20110;-74
2022/08/11 00:05:46;;;;;;;0.80;0.80;;;14.10;99.90;;;;;;5114840;28;20054;-77
2022/08/11 00:08:27;;;;;;;0.40;0.22;;;14.10;99.90;;;;;;5114728;28;20034;-74
2022/08/11 00:11:03;;;;;;;0.30;0.30;;;14.10;99.90;;;;;;5114726;28;20106;-78
2022/08/11 00:13:38;;;;;;;0.38;0.38;;;14.10;99.90;;;;;;5114642;28;20048;-75
2022/08/11 00:16:12;;;;;;;1.77;0.82;;;14.10;99.90;;;;;;5114821;28;20538;-77
2022/08/11 00:18:43;;;;;;;0.10;0.10;;;14.10;99.90;;;;;;5114528;28;20040;-75
2022/08/11 00:21:10;;;;;;;0.20;0.20;;;14.10;99.90;;;;;;5114626;28;20106;-74
2022/08/11 00:23:57;;;;;;;0.65;0.65;;;14.00;99.90;;;;;;5114435;28;20012;-75
2022/08/11 00:26:24;;;;;;;0.68;0.68;;;13.80;99.90;;;;;;5096274;28;20365;-75
2022/08/11 00:28:51;;;;;;;0.50;0.50;;;13.70;99.90;;;;;;5114285;28;20093;-75
2022/08/11 00:31:27;;;;;;;0.45;0.35;;;13.60;99.90;;;;;;5096008;28;20606;-76
2022/08/11 00:33:54;;;;;;;1.33;0.65;;;13.60;99.90;;;;;;5114126;28;20062;-75
2022/08/11 00:36:26;;;;;;;0.20;0.20;;;13.60;99.90;;;;;;5113874;28;20019;-78
2022/08/11 00:38:54;;;;;;;0.80;0.60;;;13.70;99.90;;;;;;5114461;28;20039;-75
2022/08/11 00:41:43;;;;;;;1.35;0.75;;;13.70;99.90;;;;;;5114262;28;20157;-76
2022/08/11 00:44:33;;;;;;;0.40;0.40;;;13.60;99.90;;;;;;5114197;28;20092;-76
2022/08/11 00:47:15;;;;;;;0.15;0.15;;;13.50;99.90;;;;;;5095927;28;20024;-77
2022/08/11 00:49:59;;;;;;;5.68;0.77;;;13.50;99.90;;;;;;5114112;28;20028;-76
2022/08/11 00:52:58;;;;;;;0.32;0.32;;;13.40;99.90;;;;;;5113954;28;20036;-74
2022/08/11 00:55:42;;;;;;;0.20;0.20;;;13.40;99.90;;;;;;5114232;28;20042;-75
2022/08/11 00:58:35;;;;;;;0.25;0.25;;;13.40;99.90;;;;;;5114205;28;20476;-77
2022/08/11 01:01:13;;;;;;;0.30;0.30;;;13.50;99.90;;;;;;5114014;28;20020;-77
2022/08/11 01:04:16;;;;;;;0.30;0.20;;;13.60;99.90;;;;;;5114049;28;20031;-77
2022/08/11 01:07:09;;;;;;;0.30;0.30;;;13.50;99.90;;;;;;5095678;28;20028;-75
2022/08/11 01:10:04;;;;;;;0.43;0.43;;;13.40;99.90;;;;;;5113784;28;20070;-75
2022/08/11 01:12:53;;;;;;;0.52;0.45;;;13.30;99.90;;;;;;5072086;28;20038;-74
2022/08/11 01:15:40;;;;;;;0.43;0.43;;;13.20;99.90;;;;;;5113735;28;20384;-77
2022/08/11 01:18:36;;;;;;;0.30;0.30;;;13.30;99.90;;;;;;5113996;28;20020;-76
2022/08/11 01:21:54;;;;;;;0.45;0.30;;;13.30;99.90;;;;;;5113795;28;20020;-74
2022/08/11 01:24:48;;;;;;;0.45;0.45;;;13.30;99.90;;;;;;5114137;28;20036;-75
2022/08/11 01:27:40;;;;;;;0.30;0.30;;;13.40;99.90;;;;;;5114262;28;20030;-74
2022/08/11 01:30:21;;;;;;;0.30;0.30;;;13.40;99.90;;;;;;5113675;28;20028;-76
2022/08/11 01:33:38;;;;;;;0.52;0.38;;;13.40;99.90;;;;;;5113626;28;20062;-75
2022/08/11 01:36:15;;;;;;;0.43;0.43;;;13.40;99.90;;;;;;5095414;28;20502;-76
2022/08/11 01:39:19;;;;;;;0.70;0.70;;;13.40;99.90;;;;;;5095442;28;20032;-76
2022/08/11 01:45:21;;;;;;;0.73;0.73;;;13.30;99.90;;;;;;5113723;28;20495;-75
2022/08/11 01:48:05;;;;;;;0.50;0.50;;;13.10;99.90;;;;;;5115740;28;20442;-76
2022/08/11 01:50:37;;;;;;;0.30;0.30;;;13.10;99.90;;;;;;5117625;28;20031;-76
2022/08/11 01:53:20;;;;;;;0.30;0.30;;;13.10;99.90;;;;;;5117300;28;20500;-76
2022/08/11 01:56:12;;;;;;;0.30;0.30;;;13.10;99.90;;;;;;5117190;28;20063;-76
2022/08/11 01:59:10;;;;;;;0.13;0.13;;;13.00;99.90;;;;;;5098900;28;20020;-77
2022/08/11 02:01:41;;;;;;;0.43;0.43;;;12.90;99.90;;;;;;5098834;28;20395;-76
2022/08/11 02:04:45;;;;;;;0.17;0.17;;;12.90;99.90;;;;;;5117146;28;20019;-77
2022/08/11 02:07:26;;;;;;;0.43;0.43;;;12.90;99.90;;;;;;5098860;28;20019;-77
2022/08/11 02:11:29;;;;;;;0.30;0.30;;;12.80;99.90;;;;;;5098681;28;20038;-76
2022/08/11 02:12:59;;;;;;;0.75;0.20;;;12.80;99.90;;;;;;5116633;28;20449;-76
2022/08/11 02:15:38;;;;;;;0.68;0.68;;;12.80;99.90;;;;;;5116710;28;20144;-77
2022/08/11 02:18:12;;;;;;;0.20;0.20;;;12.80;99.90;;;;;;5098657;28;20540;-78
2022/08/11 02:23:52;;;;;;;14.50;0.65;;;12.70;99.90;;;;;;5116931;28;20146;-77
2022/08/11 02:26:27;;;;;;;0.40;0.40;;;12.60;99.90;;;;;;5116672;28;20027;-77
2022/08/11 02:29:11;;;;;;;0.22;0.22;;;12.60;99.90;;;;;;5116682;28;20487;-77
2022/08/11 02:34:55;;;;;;;0.30;0.30;;;12.60;99.90;;;;;;5116593;28;20034;-77
2022/08/11 02:37:32;;;;;;;0.20;0.20;;;12.50;99.90;;;;;;5098528;28;20041;-78
2022/08/11 02:39:58;;;;;;;0.10;0.10;;;12.50;99.90;;;;;;5116711;28;20022;-77
2022/08/11 02:42:45;;;;;;;0.35;0.35;;;12.50;99.90;;;;;;5116456;28;20103;-76
2022/08/11 02:45:28;;;;;;;0.30;0.30;;;12.40;99.90;;;;;;5116356;28;20031;-76
2022/08/11 02:51:12;;;;;;;0.60;0.47;;;12.40;99.90;;;;;;5116269;28;20537;-76
2022/08/11 02:54:12;;;;;;;0.35;0.35;;;12.40;99.90;;;;;;5115886;28;20047;-77
2022/08/11 02:56:52;;;;;;;0.20;0.20;;;12.40;99.90;;;;;;5104798;28;20533;-77
2022/08/11 02:59:49;;;;;;;0.90;0.90;;;12.40;99.90;;;;;;5116158;28;20024;-76
2022/08/11 03:02:30;;;;;;;0.60;0.60;;;12.40;99.90;;;;;;5097821;28;20106;-77
2022/08/11 03:05:06;;;;;;;0.15;0.15;;;12.40;99.90;;;;;;5115862;28;20024;-77
2022/08/11 03:08:03;;;;;;;0.40;0.40;;;12.30;99.90;;;;;;5115861;28;20027;-76
2022/08/11 03:16:43;;;;;;;0.30;0.30;;;12.20;99.90;;;;;;5115868;28;20361;-76
2022/08/11 03:16:47;;;;;;;0.20;0.20;;;12.00;99.90;;;;;;5116169;28;20077;-76
2022/08/11 03:19:18;;;;;;;0.40;0.40;;;12.00;99.90;;;;;;5115835;28;20037;-77
2022/08/11 03:21:50;;;;;;;0.45;0.45;;;12.10;99.90;;;;;;5115585;28;20361;-76
2022/08/11 03:24:45;;;;;;;0.20;0.20;;;12.10;99.90;;;;;;5115573;28;20049;-75
2022/08/11 03:27:27;;;;;;;0.60;0.60;;;12.10;99.90;;;;;;5080403;28;20036;-77
2022/08/11 03:30:22;;;;;;;3.03;0.85;;;12.10;99.90;;;;;;5115433;28;20480;-77
2022/08/11 03:34:00;;;;;;;0.30;0.30;;;12.10;99.90;;;;;;5075231;28;20024;-78
2022/08/11 03:35:40;;;;;;;4.22;0.55;;;12.10;99.90;;;;;;5115283;28;20053;-78
2022/08/11 03:38:13;;;;;;;0.57;0.57;;;12.10;99.90;;;;;;5115369;28;20511;-75
2022/08/11 03:43:58;;;;;;;0.40;0.40;;;12.00;99.90;;;;;;5115434;28;20120;-74
2022/08/11 03:46:52;;;;;;;0.43;0.43;;;12.00;99.90;;;;;;5115079;28;20103;-74
2022/08/11 03:49:29;;;;;;;0.28;0.28;;;11.90;99.90;;;;;;5115053;28;20059;-74
2022/08/11 03:52:23;;;;;;;0.75;0.75;;;11.90;99.90;;;;;;5114878;28;20122;-75
2022/08/11 03:55:13;;;;;;;0.50;0.50;;;11.80;99.90;;;;;;5114942;28;20487;-75
2022/08/11 03:58:13;;;;;;;0.77;0.50;;;11.80;99.90;;;;;;5114915;28;20487;-76
2022/08/11 04:00:56;;;;;;;0.32;0.32;;;11.80;99.90;;;;;;5114853;28;20043;-75
2022/08/11 04:03:34;;;;;;;0.43;0.40;;;11.80;99.90;;;;;;5114703;28;20057;-76
2022/08/11 04:06:37;;;;;;;0.50;0.50;;;11.80;99.90;;;;;;5097290;28;20055;-74
2022/08/11 04:09:27;;;;;;;0.20;0.20;;;11.80;99.90;;;;;;5114215;28;20035;-75
2022/08/11 04:12:27;;;;;;;0.20;0.20;;;11.80;99.90;;;;;;5114689;28;20065;-74
2022/08/11 04:18:42;;;;;;;0.60;0.60;;;11.60;99.90;;;;;;5114853;28;20046;-78
2022/08/11 04:21:39;;;;;;;0.57;0.57;;;11.60;99.90;;;;;;5114416;28;20031;-74
2022/08/11 04:24:07;;;;;;;0.30;0.30;;;11.70;99.90;;;;;;5114731;28;20494;-76
2022/08/11 04:26:42;;;;;;;0.63;0.38;;;11.70;99.90;;;;;;5114430;28;20468;-77
2022/08/11 04:29:40;;;;;;;4.35;0.88;;;12.10;99.90;;;;;;5096076;28;20036;-74
2022/08/11 04:32:27;;;;;;;0.45;0.45;;;11.70;99.90;;;;;;5114317;28;20020;-74
2022/08/11 04:35:06;;;;;;;0.40;0.40;;;11.70;99.90;;;;;;5114295;28;20065;-75
2022/08/11 04:37:56;;;;;;;0.30;0.30;;;11.60;99.90;;;;;;5114216;28;20020;-78
2022/08/11 04:40:43;;;;;;;9.38;0.77;;;11.60;99.90;;;;;;5114250;28;20020;-77
2022/08/11 04:43:30;;;;;;;0.30;0.30;;;11.50;99.90;;;;;;5114253;28;20234;-76
2022/08/11 04:46:33;;;;;;;0.25;0.25;;;11.50;99.90;;;;;;5114241;28;20028;-77
2022/08/11 05:02:15;;;;;;;0.40;0.40;;;12.00;99.90;;;;;;5114300;28;20051;-76
2022/08/11 05:05:30;;;;;;;1.08;0.75;;;12.00;99.90;;;;;;5114121;28;20050;-76
2022/08/11 05:08:33;;;;;;;0.40;0.40;;;12.10;99.90;;;;;;5113817;28;20059;-76
2022/08/11 05:11:27;;;;;;;0.38;0.38;;;12.20;99.90;;;;;;5113994;28;20526;-75
2022/08/11 05:37:04;;;;;;;0.15;0.15;;;13.10;99.90;;;;;;5118090;28;20034;-77
2022/08/11 05:56:57;;;;;;;0.30;0.30;;;14.20;99.90;;;;;;5117626;28;20166;-74
2022/08/11 05:59:25;;;;;;;0.82;0.70;;;14.50;99.90;;;;;;5117385;28;20139;-75
2022/08/11 06:01:52;;;;;;;0.57;0.57;;;14.60;99.90;;;;;;5099184;28;20031;-74
2022/08/11 06:04:22;;;;;;;0.35;0.35;;;14.70;99.90;;;;;;5117403;28;20011;-77
2022/08/11 06:07:00;;;;;;;1.02;0.30;;;14.90;99.90;;;;;;5116792;28;20051;-76
2022/08/11 06:09:34;;;;;;;0.30;0.28;;;15.10;99.90;;;;;;5123477;28;20027;-76
2022/08/11 06:12:25;;;;;;;0.55;0.43;;;15.20;99.90;;;;;;5127210;28;20266;-75
2022/08/11 06:14:54;;;;;;;0.38;0.38;;;15.40;99.90;;;;;;5126860;28;20012;-75
2022/08/11 06:17:26;;;;;;;0.52;0.52;;;15.60;99.90;;;;;;5125244;28;20316;-75
2022/08/11 06:20:00;;;;;;;0.30;0.30;;;15.90;99.90;;;;;;5124728;28;20031;-77
2022/08/11 06:22:26;;;;;;;0.40;0.40;;;16.00;99.90;;;;;;5123786;28;20030;-76
2022/08/11 06:24:57;;;;;;;0.73;0.50;;;16.20;99.90;;;;;;5120088;28;20047;-78
2022/08/11 06:27:28;;;;;;;1.55;0.68;;;16.50;99.90;;;;;;5116354;28;20015;-77
2022/08/11 06:29:54;;;;;;;0.40;0.40;;;16.70;99.90;;;;;;5124407;28;20232;-76
2022/08/11 06:32:34;;;;;;;2.60;1.10;;;16.90;99.90;;;;;;5124149;28;20020;-75
2022/08/11 06:35:34;;;;;;;0.20;0.20;;;17.20;99.90;;;;;;5099103;28;20031;-76
2022/08/11 06:38:16;;;;;;;0.30;0.30;;;17.50;99.90;;;;;;5099775;28;20166;-76
2022/08/11 06:44:10;;;;;;;1.00;0.88;;;17.90;99.90;;;;;;5120308;28;20076;-74
2022/08/11 06:46:40;;;;;;;0.63;0.63;;;18.10;99.90;;;;;;5116450;28;20016;-79
2022/08/11 06:52:04;;;;;;;0.45;0.45;;;18.50;99.90;;;;;;5119392;28;20057;-79
2022/08/11 06:54:34;;;;;;;0.40;0.40;;;18.50;99.90;;;;;;5119755;28;20456;-78
2022/08/11 07:02:50;;;;;;;0.40;0.30;;;18.60;99.90;;;;;;5115860;28;20128;-80
2022/08/11 07:05:44;;;;;;;1.10;1.10;;;18.90;99.90;;;;;;5115635;28;20410;-77
2022/08/11 07:16:48;;;;;;;0.25;0.25;;;24.90;70.40;;;;;;5115611;28;20395;-79
2022/08/11 07:30:48;;;;;;;0.65;0.65;;;28.60;53.00;;;;;;5100420;28;20391;-81
2022/08/11 07:33:27;;;;;;;0.30;0.30;;;27.80;53.80;;;;;;5115654;28;20122;-75
2022/08/11 07:35:56;;;;;;;0.30;0.30;;;26.70;54.70;;;;;;5096899;28;20046;-80
2022/08/11 07:38:42;;;;;;;1.20;0.43;;;26.10;56.20;;;;;;5117153;28;20016;-75
2022/08/11 07:41:13;;;;;;;0.25;0.22;;;25.80;57.30;;;;;;5115021;28;20059;-79
2022/08/11 07:43:40;;;;;;;0.55;0.38;;;26.00;57.00;;;;;;5115050;28;20072;-80
2022/08/11 07:54:25;;;;;;;0.65;0.32;;;24.30;59.60;;;;;;5115264;28;20143;-78
2022/08/11 07:56:51;;;;;;;0.30;0.30;;;24.90;58.90;;;;;;5096433;28;20099;-77
2022/08/11 08:18:37;;;;;;;0.65;0.45;;;30.50;48.90;;;;;;5114585;28;20031;-77
2022/08/11 08:21:10;;;;;;;0.20;0.20;;;30.10;47.90;;;;;;5114754;28;20020;-79
2022/08/11 08:23:38;;;;;;;0.20;0.20;;;29.00;50.20;;;;;;5114390;28;20098;-78
2022/08/11 08:30:46;;;;;;;0.30;0.30;;;28.60;49.80;;;;;;5114406;28;20043;-78
2022/08/11 08:31:45;;;;;;;0.52;0.52;;;28.20;49.70;;;;;;5117006;28;20085;-77
2022/08/11 08:34:12;;;;;;;0.40;0.40;;;27.40;51.60;;;;;;5115904;28;20024;-79
2022/08/11 08:36:44;;;;;;;0.22;0.22;;;27.60;51.40;;;;;;5116910;28;20027;-77
2022/08/11 08:39:12;;;;;;;1.67;0.73;;;27.00;51.60;;;;;;5118923;28;20023;-77
2022/08/11 08:41:38;;;;;;;1.27;1.10;;;27.50;52.90;;;;;;5124638;28;20011;-74
2022/08/11 08:44:09;;;;;;;0.57;0.57;;;27.70;51.10;;;;;;5123510;28;20016;-75
2022/08/11 08:46:49;;;;;;;0.30;0.30;;;27.30;51.10;;;;;;5122345;28;20023;-78
2022/08/11 08:49:21;;;;;;;3.05;0.35;;;27.40;51.30;;;;;;5122126;28;20031;-77
2022/08/11 08:51:53;;;;;;;0.85;0.32;;;27.20;51.00;;;;;;5116636;28;20047;-78
2022/08/11 08:54:32;;;;;;;0.20;0.20;;;28.10;50.90;;;;;;5115979;28;20042;-74
2022/08/11 08:57:04;;;;;;;0.30;0.30;;;29.20;49.60;;;;;;5113775;28;20426;-80
2022/08/11 08:59:32;;;;;;;0.32;0.32;;;28.80;49.80;;;;;;5114294;28;20106;-77
2022/08/11 09:02:01;;;;;;;0.40;0.40;;;28.80;49.90;;;;;;5114014;28;20069;-81
2022/08/11 09:04:28;;;;;;;0.30;0.20;;;28.80;51.00;;;;;;5114127;28;20523;-80
2022/08/11 09:06:58;;;;;;;0.20;0.20;;;28.90;50.10;;;;;;5113761;28;20016;-77
2022/08/11 09:09:24;;;;;;;0.63;0.55;;;29.70;49.10;;;;;;5113370;28;20032;-78
2022/08/11 09:11:53;;;;;;;0.22;0.22;;;29.30;48.20;;;;;;5112876;28;20050;-78
2022/08/11 09:14:59;;;;;;;0.65;0.43;;;28.30;49.60;;;;;;5094693;28;20023;-76
2022/08/11 09:17:12;;;;;;;0.30;0.30;;;28.30;51.40;;;;;;5112783;28;20492;-78
2022/08/11 09:19:38;;;;;;;1.33;1.05;;;28.10;51.70;;;;;;5113034;28;20016;-76
2022/08/11 09:27:37;;;;;;;4.72;0.47;;;28.90;50.60;;;;;;5115248;28;20034;-79
2022/08/11 09:30:05;;;;;;;0.13;0.13;;;28.30;50.00;;;;;;5116770;28;20031;-77
2022/08/11 09:32:32;;;;;;;3.47;1.35;;;28.40;50.10;;;;;;5113626;28;20158;-78
2022/08/11 09:35:01;;;;;;;2.85;1.17;;;28.70;50.30;;;;;;5114260;28;20436;-79
2022/08/11 09:45:57;;;;;;;0.30;0.17;;;28.00;51.50;;;;;;5116514;28;20065;-74
2022/08/11 09:48:25;;;;;;;0.57;0.47;;;28.40;51.30;;;;;;5123772;28;20023;-73
2022/08/11 09:50:54;;;;;;;0.47;0.32;;;28.70;51.30;;;;;;5123307;28;20316;-74
2022/08/11 09:53:22;;;;;;;1.27;0.50;;;28.40;50.30;;;;;;5118719;28;20043;-74
2022/08/11 09:55:49;;;;;;;0.57;0.40;;;28.60;50.20;;;;;;5120235;28;20027;-77
2022/08/11 09:58:16;;;;;;;0.30;0.20;;;28.80;50.10;;;;;;5115536;28;20019;-74
2022/08/11 10:00:48;;;;;;;1.52;0.25;;;29.00;50.20;;;;;;5113137;28;20032;-73
2022/08/11 10:03:20;;;;;;;0.52;0.52;;;28.90;50.40;;;;;;5094721;28;20032;-74
2022/08/11 10:08:46;;;;;;;0.40;0.40;;;28.90;50.10;;;;;;5115381;28;20085;-74
2022/08/11 10:11:16;;;;;;;0.38;0.38;;;28.20;49.70;;;;;;5116936;28;20043;-76
2022/08/11 10:16:34;;;;;;;1.15;0.60;;;27.60;51.80;;;;;;5117067;28;20069;-78
2022/08/11 10:19:01;;;;;;;3.22;1.48;;;28.10;51.80;;;;;;5116259;28;20038;-75
2022/08/11 10:27:27;;;;;;;0.45;0.40;;;28.50;49.50;;;;;;5116485;28;20437;-74
2022/08/11 10:35:26;;;;;;;0.15;0.15;;;28.70;49.60;;;;;;5116785;28;20072;-76
2022/08/11 10:37:53;;;;;;;0.52;0.52;;;28.30;50.10;;;;;;5097905;28;20016;-79
2022/08/11 10:40:21;;;;;;;0.90;0.90;;;28.70;50.40;;;;;;5097682;28;20031;-74
2022/08/11 10:43:05;;;;;;;0.20;0.20;;;29.50;49.20;;;;;;5097816;28;20019;-77
2022/08/11 10:48:24;;;;;;;0.30;0.30;;;29.50;48.70;;;;;;5116050;28;20466;-78
2022/08/11 10:59:08;;;;;;;0.98;0.95;;;29.40;48.10;;;;;;5115872;28;20038;-74
2022/08/11 11:01:37;;;;;;;0.28;0.28;;;29.40;49.10;;;;;;5115660;28;20073;-75
2022/08/11 11:04:17;;;;;;;0.57;0.22;;;30.10;48.10;;;;;;5097391;28;20023;-74
2022/08/11 11:07:04;;;;;;;0.40;0.40;;;30.60;46.90;;;;;;5097363;28;20398;-74
2022/08/11 11:09:40;;;;;;;0.30;0.30;;;30.40;46.30;;;;;;5115514;28;20118;-76
2022/08/11 11:18:03;;;;;;;0.30;0.30;;;29.40;48.70;;;;;;5115884;28;20056;-75
2022/08/11 11:20:38;;;;;;;0.25;0.25;;;29.60;47.90;;;;;;5115204;28;20016;-77
2022/08/11 11:23:18;;;;;;;0.40;0.40;;;30.10;46.80;;;;;;5096997;28;20143;-77
2022/08/11 11:26:18;;;;;;;0.28;0.20;;;30.60;46.90;;;;;;5115240;28;20557;-77
2022/08/11 11:29:02;;;;;;;0.20;0.20;;;31.40;45.40;;;;;;5096772;28;20028;-78
2022/08/11 11:31:34;;;;;;;0.77;0.77;;;32.30;44.60;;;;;;5115071;28;20047;-77
2022/08/11 11:34:27;;;;;;;1.10;0.40;;;32.60;43.80;;;;;;5096725;28;20038;-77
2022/08/11 11:36:55;;;;;;;0.85;0.35;;;31.70;45.50;;;;;;5115107;28;20023;-79
2022/08/11 11:39:30;;;;;;;0.40;0.40;;;31.70;45.60;;;;;;5096815;28;20073;-74
2022/08/11 11:41:59;;;;;;;0.40;0.40;;;32.00;45.40;;;;;;5115166;28;20472;-73
2022/08/11 11:44:26;;;;;;;0.50;0.50;;;32.50;45.00;;;;;;5096507;28;20020;-78
2022/08/11 11:46:52;;;;;;;0.95;0.40;;;33.00;44.20;;;;;;5114458;28;20406;-74
2022/08/11 11:49:22;;;;;;;1.27;0.40;;;33.00;43.40;;;;;;5114791;28;20089;-78
2022/08/11 11:51:53;;;;;;;0.30;0.30;;;33.10;43.60;;;;;;5114293;28;20055;-76
2022/08/11 11:54:27;;;;;;;0.20;0.20;;;32.00;43.60;;;;;;5115040;28;20392;-74
2022/08/11 11:56:54;;;;;;;0.20;0.20;;;31.80;45.00;;;;;;5096478;28;20016;-77
2022/08/11 12:02:11;;;;;;;0.35;0.20;;;33.30;43.70;;;;;;5114605;28;20027;-76
2022/08/11 12:04:41;;;;;;;0.30;0.30;;;34.50;42.40;;;;;;5114434;28;20024;-76
2022/08/11 12:09:54;;;;;;;0.20;0.20;;;35.30;40.60;;;;;;5114500;28;20126;-76
2022/08/11 12:15:08;;;;;;;0.47;0.25;;;35.10;41.10;;;;;;5114728;28;20077;-78
2022/08/11 12:17:35;;;;;;;1.20;1.20;;;34.20;40.60;;;;;;5096272;28;20072;-78
2022/08/11 12:20:01;;;;;;;0.32;0.28;;;33.80;41.80;;;;;;5114100;28;20020;-76
2022/08/11 12:27:57;;;;;;;0.43;0.43;;;34.30;41.80;;;;;;5114612;28;20076;-77
2022/08/11 12:30:23;;;;;;;0.30;0.30;;;34.10;41.90;;;;;;5113435;28;20028;-75
2022/08/11 12:32:49;;;;;;;0.30;0.30;;;33.80;42.20;;;;;;5113857;28;20434;-74
2022/08/11 12:35:16;;;;;;;0.70;0.30;;;34.30;41.20;;;;;;5114401;28;20035;-74
2022/08/11 12:37:48;;;;;;;0.30;0.30;;;34.00;41.00;;;;;;5114012;28;20069;-75
2022/08/11 12:45:58;;;;;;;1.75;0.38;;;34.00;41.90;;;;;;5113940;28;20035;-78
2022/08/11 12:54:20;;;;;;;0.30;0.30;;;34.70;40.60;;;;;;5113812;28;20162;-77
2022/08/11 13:05:13;;;;;;;0.30;0.30;;;35.10;40.80;;;;;;5113597;28;20046;-75
2022/08/11 13:07:42;;;;;;;0.77;0.40;;;35.70;39.80;;;;;;5113661;28;20027;-75
2022/08/11 13:10:08;;;;;;;;;;;35.80;39.00;;;;;;5095739;28;20032;-75
2022/08/11 13:12:47;;;;;;;0.90;0.40;;;35.70;39.30;;;;;;5113606;28;19904;-73
2022/08/11 13:15:21;;;;;;;0.50;0.50;;;35.20;39.20;;;;;;5095073;28;20104;-74
2022/08/11 13:17:49;;;;;;;0.30;0.30;;;35.40;40.20;;;;;;5113510;28;20468;-75
2022/08/11 13:20:21;;;;;;;0.57;0.38;;;34.80;39.30;;;;;;5113222;28;20031;-74
2022/08/11 13:22:54;;;;;;;1.40;0.45;;;34.90;40.80;;;;;;5113495;28;20059;-74
2022/08/11 13:25:22;;;;;;;0.40;0.40;;;35.80;40.20;;;;;;5095007;28;20564;-77
2022/08/11 13:27:50;;;;;;;1.85;0.32;;;36.50;39.50;;;;;;5113273;28;20491;-76
2022/08/11 13:33:03;;;;;;;0.40;0.30;;;36.00;38.30;;;;;;5113728;28;20376;-78
2022/08/11 13:35:31;;;;;;;0.52;0.30;;;36.00;38.90;;;;;;5094958;28;20388;-77
2022/08/11 13:38:00;;;;;;;;;;;35.80;39.20;;;;;;5113570;28;20024;-77
2022/08/11 13:40:27;;;;;;;0.40;0.40;;;35.70;38.80;;;;;;5095075;28;19910;-77
2022/08/11 13:42:53;;;;;;;0.45;0.30;;;35.50;38.70;;;;;;5095931;28;20027;-74
2022/08/11 13:45:22;;;;;;;0.40;0.30;;;35.20;37.70;;;;;;5117167;28;20026;-77
2022/08/11 13:47:48;;;;;;;;;;;34.90;40.20;;;;;;5099161;28;20020;-79
2022/08/11 13:50:15;;;;;;;1.40;0.90;;;34.90;39.10;;;;;;5117126;28;19903;-75
2022/08/11 13:52:41;;;;;;;0.35;0.35;;;34.40;39.60;;;;;;5117004;28;20044;-75
2022/08/11 13:55:20;;;;;;;0.40;0.40;;;34.70;39.70;;;;;;5098770;28;20024;-75
2022/08/11 13:57:52;;;;;;;0.30;0.30;;;34.60;39.20;;;;;;5117130;28;20024;-74
2022/08/11 14:00:19;;;;;;;2.05;0.95;;;34.80;38.60;;;;;;5116935;28;20043;-78
2022/08/11 14:02:48;;;;;;;0.30;0.30;;;34.70;38.60;;;;;;5116834;28;20476;-74
2022/08/11 14:05:17;;;;;;;1.33;0.40;;;34.40;39.30;;;;;;5116532;28;20038;-74
2022/08/11 14:07:52;;;;;;;0.40;0.40;;;35.10;38.90;;;;;;5116541;28;20062;-76
2022/08/11 14:10:23;;;;;;;0.30;0.30;;;35.80;38.20;;;;;;5116761;28;20042;-78
2022/08/11 14:16:00;;;;;;;0.30;0.30;;;35.20;39.20;;;;;;5116787;28;20080;-77
2022/08/11 14:18:28;;;;;;;1.60;0.47;;;35.10;38.60;;;;;;5116746;28;20076;-78
2022/08/11 14:23:45;;;;;;;0.30;0.30;;;35.70;38.10;;;;;;5119848;28;20495;-75
2022/08/11 14:26:22;;;;;;;0.25;0.25;;;34.70;37.50;;;;;;5116364;28;20031;-76
2022/08/11 14:28:52;;;;;;;0.50;0.50;;;35.70;38.40;;;;;;5121647;28;20129;-77
2022/08/11 14:31:18;;;;;;;0.75;0.70;;;34.80;38.30;;;;;;5116645;28;20024;-76
2022/08/11 14:33:45;;;;;;;0.35;0.35;;;34.70;39.20;;;;;;5116161;28;20051;-76
2022/08/11 14:36:12;;;;;;;0.30;0.30;;;34.10;39.30;;;;;;5116725;28;20016;-76
2022/08/11 14:38:40;;;;;;;0.30;0.30;;;34.20;38.70;;;;;;5098054;28;20119;-76
2022/08/11 14:49:25;;;;;;;0.50;0.30;;;34.20;39.40;;;;;;5115940;28;20161;-74
2022/08/11 14:51:55;;;;;;;0.43;0.43;;;34.50;38.30;;;;;;5097459;28;20027;-74
2022/08/11 14:57:09;;;;;;;0.47;0.35;;;35.20;38.10;;;;;;5116127;28;20137;-74
2022/08/11 14:59:36;;;;;;;0.20;0.20;;;35.40;37.90;;;;;;5115832;28;20027;-74
2022/08/11 15:04:49;;;;;;;0.22;0.22;;;35.40;37.30;;;;;;5116228;28;20059;-78
2022/08/11 15:07:15;;;;;;;0.30;0.30;;;35.30;38.00;;;;;;5097537;28;20057;-78
2022/08/11 15:09:43;;;;;;;0.47;0.45;;;35.10;38.80;;;;;;5115536;28;20031;-78
2022/08/11 15:12:17;;;;;;;0.15;0.15;;;35.10;37.80;;;;;;5115616;28;20463;-75
2022/08/11 15:17:33;;;;;;;0.65;0.65;;;34.10;38.60;;;;;;5115793;28;20145;-78
2022/08/11 15:25:37;;;;;;;0.30;0.30;;;34.70;38.50;;;;;;5116024;28;20065;-75
2022/08/11 15:39:22;;;;;;;1.95;0.40;;;34.60;38.10;;;;;;5115532;28;20030;-83
2022/08/11 15:47:39;;;;;;;0.40;0.40;;;35.00;37.40;;;;;;5115250;28;20046;-75
2022/08/11 15:50:07;;;;;;;0.45;0.45;;;34.50;38.90;;;;;;5096674;28;20092;-75
2022/08/11 15:52:38;;;;;;;0.50;0.47;;;33.80;38.40;;;;;;5115108;28;20035;-73
2022/08/11 15:55:06;;;;;;;0.32;0.32;;;33.80;39.40;;;;;;5116200;28;20019;-78
2022/08/11 16:05:51;;;;;;;0.47;0.43;;;34.40;38.90;;;;;;5114968;28;20089;-75
2022/08/11 16:08:23;;;;;;;0.63;0.63;;;34.40;38.10;;;;;;5114049;28;20474;-79
2022/08/11 16:10:51;;;;;;;0.45;0.45;;;34.50;38.80;;;;;;5114066;28;20032;-74
2022/08/11 16:18:58;;;;;;;0.82;0.82;;;33.80;39.80;;;;;;5113940;28;20042;-79
2022/08/11 16:21:28;;;;;;;1.65;1.10;;;33.60;39.10;;;;;;5113132;28;20032;-77
2022/08/11 16:23:56;;;;;;;0.40;0.40;;;33.20;40.10;;;;;;5113671;28;20472;-78
2022/08/11 16:26:23;;;;;;;0.30;0.30;;;33.20;39.10;;;;;;5117345;28;20031;-77
2022/08/11 16:28:53;;;;;;;0.47;0.47;;;33.20;40.50;;;;;;5119076;28;20042;-77
2022/08/11 16:31:21;;;;;;;0.40;0.40;;;33.00;41.20;;;;;;5113996;28;20019;-76
2022/08/11 16:33:48;;;;;;;0.57;0.57;;;32.80;40.30;;;;;;5116786;28;20016;-75
2022/08/11 16:39:01;;;;;;;0.22;0.22;;;32.80;40.60;;;;;;5114363;28;20108;-77
2022/08/11 16:47:04;;;;;;;0.30;0.30;;;33.00;39.40;;;;;;5116129;28;20023;-74
2022/08/11 16:50:06;;;;;;;1.15;0.57;;;33.00;40.60;;;;;;5113699;28;20076;-74
2022/08/11 16:52:33;;;;;;;0.40;0.40;;;33.50;39.20;;;;;;5030877;28;20073;-77
2022/08/11 16:55:02;;;;;;;0.30;0.30;;;33.60;39.40;;;;;;5079475;28;20039;-76
2022/08/11 17:00:22;;;;;;;0.55;0.55;;;33.90;39.40;;;;;;5089815;28;20028;-74
2022/08/11 17:14:35;;;;;;;0.30;0.30;;;33.00;40.20;;;;;;5113841;28;20054;-75
2022/08/11 17:17:11;;;;;;;0.75;0.52;;;32.80;39.30;;;;;;5114533;28;20019;-78
2022/08/11 17:19:40;;;;;;;0.40;0.40;;;32.80;40.30;;;;;;5117979;28;20026;-77
2022/08/11 17:24:54;;;;;;;0.30;0.30;;;32.00;41.10;;;;;;5118177;28;20030;-76
2022/08/11 17:27:21;;;;;;;1.92;0.30;;;31.70;41.00;;;;;;5117663;28;20031;-76
2022/08/11 17:29:52;;;;;;;0.30;0.30;;;31.50;42.00;;;;;;5099324;28;20096;-76
2022/08/11 17:35:30;;;;;;;0.30;0.30;;;31.60;42.40;;;;;;5117737;28;20038;-77
2022/08/11 17:38:11;;;;;;;0.45;0.45;;;31.30;42.70;;;;;;5117527;28;20020;-75
2022/08/11 17:49:12;;;;;;;0.55;0.50;;;31.30;42.30;;;;;;5117422;28;20043;-79
2022/08/11 17:59:57;;;;;;;0.10;0.10;;;32.10;45.90;;;;;;5117213;28;20062;-78
2022/08/11 18:05:39;;;;;;;0.50;0.20;;;31.60;47.80;;;;;;5117071;28;20026;-78
